WetterOnline ( https://www.wetteronline.de )

Wetter aktuell Marktrodach

Aktuelles Wetter: Coburg (323m)

6-stündlich | Neueste Meldungen
Ortszeit Temperatur Wetter
Sa, 15.08. 2:00 18.3° C Regen
Fr, 14.08. 20:00 21.2° C bewölkt
Fr, 14.08. 14:00 19.8° C leichter Regen
Fr, 14.08. 8:00 18.5° C leichter Regen
Fr, 14.08. 2:00 19.3° C bewölkt
Do, 13.08. 20:00 22.3° C bedeckt
Do, 13.08. 14:00 27.7° C bedeckt
Do, 13.08. 8:00 22.9° C wolkig
Ortszeit Temperatur Wetter
Sa, 15.08. 7:30 17.6° C bedeckt
Sa, 15.08. 7:20 17.6° C bedeckt
Sa, 15.08. 7:10 17.5° C bedeckt
Sa, 15.08. 7:00 17.4° C bedeckt
Sa, 15.08. 6:50 17.4° C bedeckt
Sa, 15.08. 6:40 17.5° C bedeckt
Sa, 15.08. 6:30 17.4° C bewölkt
Sa, 15.08. 6:00 17.6° C wolkig
Ortszeit Relative Feuchte Sichtweite
Sa, 15.08. 2:00 98% 3.9 km
Fr, 14.08. 20:00 79% 45 km
Fr, 14.08. 14:00 95% 6 km
Fr, 14.08. 8:00 95% 8 km
Fr, 14.08. 2:00 81% 40 km
Do, 13.08. 20:00 68% 55 km
Do, 13.08. 14:00 46% 45 km
Do, 13.08. 8:00 56% 50 km
Ortszeit Relative Feuchte Sichtweite
Sa, 15.08. 7:30 97% 6 km
Sa, 15.08. 7:20 97% -
Sa, 15.08. 7:10 98% -
Sa, 15.08. 7:00 98% 2.3 km
Sa, 15.08. 6:50 98% -
Sa, 15.08. 6:40 98% -
Sa, 15.08. 6:30 96% 10 km
Sa, 15.08. 6:00 97% 11 km
Ortszeit Niederschlagsmenge Niederschlagsart
Sa, 15.08. 2:00 11 l/m2 in 6 Std. Regen
Fr, 14.08. 20:00 6 l/m2 in 12 Std. Regen
Fr, 14.08. 14:00 4 l/m2 in 6 Std. Regen
Fr, 14.08. 8:00 1 l/m2 in 12 Std. Regen
Fr, 14.08. 2:00 0.0 l/m2 in 6 Std. -
Do, 13.08. 20:00 0.0 l/m2 in 12 Std. -
Do, 13.08. 14:00 0.0 l/m2 in 6 Std. -
Do, 13.08. 8:00 0.0 l/m2 in 12 Std. -
Ortszeit Niederschlagsmenge Niederschlagsart
Sa, 15.08. 7:30 0.0 l/m2 in 1 Std. -
Sa, 15.08. 7:20 keine Meldung -
Sa, 15.08. 7:10 keine Meldung -
Sa, 15.08. 7:00 0.0 l/m2 in 1 Std. -
Sa, 15.08. 6:50 keine Meldung -
Sa, 15.08. 6:40 keine Meldung -
Sa, 15.08. 6:30 0.0 l/m2 in 1 Std. -
Sa, 15.08. 6:00 0.1 l/m2 in 1 Std. Regen
Ortszeit Stärke Spitze Richtung
km/h Bft. km/h Grad Sektor
Sa, 15.08. 2:00 4 1 18 280° W
Fr, 14.08. 20:00 4 1 29 310° NW
Fr, 14.08. 14:00 11 2 14 230° SW
Fr, 14.08. 8:00 4 1 11 120° SO
Fr, 14.08. 2:00 7 2 11 60° NO
Do, 13.08. 20:00 7 2 39 280° W
Do, 13.08. 14:00 15 3 37 280° W
Do, 13.08. 8:00 11 2 19 80° O
Ortszeit Stärke Spitze Richtung
km/h Bft. km/h Grad Sektor
Sa, 15.08. 7:30 2 1 7 280° W
Sa, 15.08. 7:20 2 1 - 280° W
Sa, 15.08. 7:10 6 1 - 280° W
Sa, 15.08. 7:00 4 1 7 230° SW
Sa, 15.08. 6:50 4 1 - 230° SW
Sa, 15.08. 6:40 7 2 - 260° W
Sa, 15.08. 6:30 4 1 7 340° N
Sa, 15.08. 6:00 6 1 9 310° NW
Ortszeit Untergrenze Bedeckung Gattung
total tief tief mittel hoch
Sa, 15.08. 2:00 60 m 8/8 7/8 - - -
Fr, 14.08. 20:00 2100 m 8/8 4/8 - - -
Fr, 14.08. 14:00 210 m 8/8 8/8 - - -
Fr, 14.08. 8:00 90 m 8/8 8/8 - - -
Fr, 14.08. 2:00 1500 m 8/8 5/8 - - -
Do, 13.08. 20:00 4200 m 8/8 8/8 - - -
Do, 13.08. 14:00 2100 m 8/8 8/8 - - -
Do, 13.08. 8:00 4800 m 5/8 5/8 - - -
Ortszeit Bedeckungsgrad in Achtel und Wolkenuntergrenze
Sa, 15.08. 7:30 1(30m) 8(2100m) 8(3000m)
Sa, 15.08. 7:20 1(30m) 8(2100m) 8(3000m)
Sa, 15.08. 7:10 2(<30m) 8(1800m) 8(3300m)
Sa, 15.08. 7:00 2(<30m) 8(2100m) 8(3000m)
Sa, 15.08. 6:50 2(<30m) 8(2100m) 8(3000m)
Sa, 15.08. 6:40 1(30m) 8(2100m) 8(3600m)
Sa, 15.08. 6:30 7(1800m) 8(4500m) 8(6300m)
Sa, 15.08. 6:00 1(210m) 8(4500m) 8(6600m)
Ortszeit Luftdruck NN (hPa) Tendenz (hPa in 3 Std.)
Sa, 15.08. 2:00 1014 0,0
Fr, 14.08. 20:00 1013 - 0,4
Fr, 14.08. 14:00 1015 + 0,4
Fr, 14.08. 8:00 1014 + 0,4
Fr, 14.08. 2:00 1015 + 0,1
Do, 13.08. 20:00 1014 - 0,9
Do, 13.08. 14:00 1013 + 0,2
Do, 13.08. 8:00 1013 - 0,1
Ortszeit Luftdruck NN (hPa) Tendenz (hPa in 3 Std.)
Sa, 15.08. 7:30 1015 + 0,8
Sa, 15.08. 7:20 1015 keine Meldung
Sa, 15.08. 7:10 1015 keine Meldung
Sa, 15.08. 7:00 1014 + 0,6
Sa, 15.08. 6:50 1014 keine Meldung
Sa, 15.08. 6:40 1014 keine Meldung
Sa, 15.08. 6:30 1014 + 0,3
Sa, 15.08. 6:00 1014 - 0,2
Ortszeit Schneehöhe (cm)
Sa, 15.08. 2:00 -
Fr, 14.08. 20:00 -
Fr, 14.08. 14:00 -
Fr, 14.08. 8:00 -
Fr, 14.08. 2:00 -
Do, 13.08. 20:00 -
Do, 13.08. 14:00 -
Do, 13.08. 8:00 -
Ortszeit Schneehöhe (cm)
Sa, 15.08. 7:30 -
Sa, 15.08. 7:20 -
Sa, 15.08. 7:10 -
Sa, 15.08. 7:00 -
Sa, 15.08. 6:50 -
Sa, 15.08. 6:40 -
Sa, 15.08. 6:30 -
Sa, 15.08. 6:00 -
Link zu dieser Seite / Seite empfehlen

Das Wetter in ...